createdAt,value
2022-12-05T00:01:23.356Z,6.67
2022-12-05T00:03:51.587Z,6.87
2022-12-05T00:06:18.969Z,6.78
2022-12-05T00:08:45.952Z,6.84
2022-12-05T00:11:14.659Z,6.80
2022-12-05T00:13:42.508Z,7.01
2022-12-05T00:16:11.449Z,7.04
2022-12-05T00:18:38.541Z,7.08
2022-12-05T00:21:05.731Z,7.02
2022-12-05T00:23:32.216Z,6.95
2022-12-05T00:26:03.439Z,7.12
2022-12-05T00:28:31.930Z,6.89
2022-12-05T00:31:02.541Z,6.31
2022-12-05T00:33:29.087Z,6.74
2022-12-05T00:35:55.387Z,7.03
2022-12-05T00:38:21.698Z,6.60
2022-12-05T00:40:48.023Z,6.85
2022-12-05T00:43:14.406Z,6.82
2022-12-05T00:45:40.867Z,6.82
2022-12-05T00:48:07.286Z,6.72
2022-12-05T00:50:33.705Z,6.82
2022-12-05T00:53:00.096Z,6.19
2022-12-05T00:55:26.388Z,6.72
2022-12-05T00:57:52.712Z,6.74
2022-12-05T01:00:19.420Z,6.74
2022-12-05T01:02:45.847Z,6.91
2022-12-05T01:05:12.875Z,6.89
2022-12-05T01:07:39.342Z,6.64
2022-12-05T01:10:06.486Z,6.83
2022-12-05T01:12:33.341Z,6.68
2022-12-05T01:14:59.689Z,7.08
2022-12-05T01:17:26.194Z,6.99
2022-12-05T01:19:52.722Z,6.99
2022-12-05T01:22:19.087Z,6.31
2022-12-05T01:24:45.426Z,6.97
2022-12-05T01:27:11.835Z,6.94
2022-12-05T01:29:38.247Z,6.90
2022-12-05T01:32:04.910Z,6.89
2022-12-05T01:34:31.370Z,6.68
2022-12-05T01:36:57.752Z,6.85
2022-12-05T01:39:24.199Z,6.76
2022-12-05T01:41:50.819Z,6.80
2022-12-05T01:44:17.136Z,7.02
2022-12-05T01:46:44.596Z,6.99
2022-12-05T01:49:15.227Z,6.81
2022-12-05T01:51:46.687Z,6.67
2022-12-05T01:54:14.873Z,7.06
2022-12-05T01:56:44.412Z,6.79
2022-12-05T01:59:12.229Z,7.02
2022-12-05T02:01:39.362Z,6.68
2022-12-05T02:04:06.664Z,6.98
2022-12-05T02:06:33.855Z,7.00
2022-12-05T02:09:00.482Z,6.87
2022-12-05T02:11:29.584Z,6.94
2022-12-05T02:14:38.819Z,6.92
2022-12-05T02:17:42.407Z,7.06
2022-12-05T02:20:38.576Z,7.03
2022-12-05T02:23:29.385Z,6.85
2022-12-05T02:26:16.850Z,6.97
2022-12-05T02:29:05.071Z,6.99
2022-12-05T02:31:51.412Z,6.57
2022-12-05T02:34:31.672Z,6.94
2022-12-05T02:37:23.063Z,6.75
2022-12-05T02:40:00.853Z,7.02
2022-12-05T02:42:42.873Z,6.82
2022-12-05T02:45:12.165Z,7.03
2022-12-05T02:47:44.820Z,6.67
2022-12-05T02:50:15.505Z,6.95
2022-12-05T02:52:44.913Z,7.09
2022-12-05T02:55:14.439Z,6.89
2022-12-05T02:57:46.755Z,6.91
2022-12-05T03:00:13.664Z,6.96
2022-12-05T03:02:41.213Z,6.90
2022-12-05T03:05:25.853Z,7.07
2022-12-05T03:07:54.907Z,7.04
2022-12-05T03:10:23.825Z,7.01
2022-12-05T03:12:58.046Z,6.37
2022-12-05T03:15:33.201Z,6.98
2022-12-05T03:18:10.363Z,6.84
2022-12-05T03:21:21.651Z,6.93
2022-12-05T03:23:53.878Z,7.02
2022-12-05T03:26:34.885Z,6.99
2022-12-05T03:29:09.975Z,6.97
2022-12-05T03:31:52.769Z,6.98
2022-12-05T03:34:32.258Z,6.64
2022-12-05T03:37:05.282Z,6.74
2022-12-05T03:39:35.930Z,6.67
2022-12-05T03:42:11.100Z,6.86
2022-12-05T03:44:45.093Z,6.79
2022-12-05T03:47:21.516Z,6.58
2022-12-05T03:49:52.608Z,6.29
2022-12-05T03:52:27.225Z,6.75
2022-12-05T03:54:57.403Z,6.49
2022-12-05T03:57:32.996Z,6.67
2022-12-05T04:00:04.170Z,6.57
2022-12-05T04:02:45.093Z,6.33
2022-12-05T04:05:26.669Z,6.40
2022-12-05T04:08:01.437Z,6.49
2022-12-05T04:10:48.662Z,6.72
2022-12-05T04:13:44.077Z,6.74
2022-12-05T04:16:35.609Z,6.73
2022-12-05T04:19:09.205Z,6.62
2022-12-05T04:21:43.080Z,6.73
2022-12-05T04:24:34.081Z,6.47
2022-12-05T04:27:15.503Z,6.74
2022-12-05T04:30:02.641Z,6.51
2022-12-05T04:32:38.516Z,6.57
2022-12-05T04:35:13.985Z,6.60
2022-12-05T04:37:44.435Z,6.40
2022-12-05T04:40:28.274Z,6.71
2022-12-05T04:42:56.487Z,6.46
2022-12-05T04:45:25.671Z,6.40
2022-12-05T04:47:57.202Z,6.43
2022-12-05T04:50:25.944Z,6.66
2022-12-05T04:52:58.024Z,6.46
2022-12-05T04:55:26.669Z,6.62
2022-12-05T04:58:01.765Z,6.50
2022-12-05T05:00:30.646Z,6.56
2022-12-05T05:03:23.231Z,6.65
2022-12-05T05:05:53.044Z,6.67
2022-12-05T05:08:22.937Z,6.43
2022-12-05T05:11:03.914Z,6.44
2022-12-05T05:13:30.310Z,6.49
2022-12-05T05:15:56.691Z,6.36
2022-12-05T05:18:23.181Z,6.41
2022-12-05T05:20:49.640Z,6.48
2022-12-05T05:23:16.087Z,5.98
2022-12-05T05:25:42.441Z,6.63
2022-12-05T05:28:08.788Z,6.42
2022-12-05T05:30:35.168Z,6.40
2022-12-05T05:33:01.609Z,6.38
2022-12-05T05:35:28.019Z,5.87
2022-12-05T05:37:54.373Z,6.15
2022-12-05T05:40:20.704Z,6.22
2022-12-05T05:42:49.574Z,6.57
2022-12-05T05:45:16.668Z,6.36
2022-12-05T05:47:43.183Z,6.43
2022-12-05T05:50:13.872Z,6.55
2022-12-05T05:52:42.797Z,6.26
2022-12-05T05:55:09.889Z,6.15
2022-12-05T05:57:36.708Z,5.15
2022-12-05T06:00:06.508Z,6.45
2022-12-05T06:02:34.918Z,6.10
2022-12-05T06:05:01.901Z,6.06
2022-12-05T06:07:28.418Z,6.45
2022-12-05T06:09:54.787Z,5.98
2022-12-05T06:12:21.273Z,6.28
2022-12-05T06:14:49.189Z,6.03
2022-12-05T06:17:16.453Z,6.44
2022-12-05T06:19:42.881Z,6.18
2022-12-05T06:22:09.572Z,6.24
2022-12-05T06:24:35.914Z,6.35
2022-12-05T06:27:02.254Z,6.23
2022-12-05T06:29:33.518Z,6.08
2022-12-05T06:32:00.448Z,6.21
2022-12-05T06:34:26.913Z,6.14
2022-12-05T06:36:53.225Z,6.32
2022-12-05T06:39:19.608Z,6.28
2022-12-05T06:41:46.321Z,6.11
2022-12-05T06:44:12.689Z,6.32
2022-12-05T06:46:39.051Z,6.38
2022-12-05T06:49:05.401Z,6.38
2022-12-05T06:51:31.710Z,6.31
2022-12-05T06:53:58.232Z,6.26
2022-12-05T06:56:24.541Z,6.26
2022-12-05T06:58:52.364Z,6.07
2022-12-05T07:01:40.680Z,6.47
2022-12-05T07:04:12.556Z,6.48
2022-12-05T07:06:40.658Z,6.23
2022-12-05T07:09:07.605Z,6.00
2022-12-05T07:11:34.959Z,6.18
2022-12-05T07:14:10.168Z,5.99
2022-12-05T07:16:41.182Z,6.00
2022-12-05T07:19:07.647Z,6.22
2022-12-05T07:21:33.961Z,6.01
2022-12-05T07:24:00.265Z,5.83
2022-12-05T07:26:26.679Z,5.85
2022-12-05T07:28:57.275Z,5.97
2022-12-05T07:31:25.944Z,5.82
2022-12-05T07:33:52.370Z,5.94
2022-12-05T07:36:22.337Z,6.07
2022-12-05T07:38:48.740Z,6.03
2022-12-05T07:41:21.158Z,6.01
2022-12-05T07:43:47.563Z,5.94
2022-12-05T07:46:14.465Z,6.03
2022-12-05T07:48:40.933Z,5.59
2022-12-05T07:51:09.456Z,5.89
2022-12-05T07:53:36.621Z,5.64
2022-12-05T07:56:05.695Z,5.71
2022-12-05T07:58:33.144Z,5.51
2022-12-05T08:01:11.588Z,5.45
2022-12-05T08:03:41.636Z,5.40
2022-12-05T08:06:10.674Z,5.54
2022-12-05T08:08:37.210Z,5.29
2022-12-05T08:11:23.703Z,5.50
2022-12-05T08:13:50.353Z,5.75
2022-12-05T08:16:19.409Z,5.71
2022-12-05T08:18:46.814Z,5.69
2022-12-05T08:21:16.081Z,5.75
2022-12-05T08:23:45.824Z,5.56
2022-12-05T08:26:15.202Z,5.77
2022-12-05T08:28:42.949Z,5.41
2022-12-05T08:31:17.513Z,5.63
2022-12-05T08:33:44.391Z,5.48
2022-12-05T08:36:18.252Z,5.26
2022-12-05T08:38:45.556Z,5.48
2022-12-05T08:41:15.009Z,5.30
2022-12-05T08:43:41.724Z,4.85
2022-12-05T08:46:08.984Z,5.43
2022-12-05T08:48:36.434Z,5.62
2022-12-05T08:51:08.125Z,5.67
2022-12-05T08:53:40.925Z,4.96
2022-12-05T08:56:10.987Z,5.48
2022-12-05T08:58:37.803Z,5.50
2022-12-05T09:01:15.478Z,5.78
2022-12-05T09:03:47.634Z,5.38
2022-12-05T09:06:20.449Z,5.76
2022-12-05T09:08:47.443Z,5.71
2022-12-05T09:11:15.330Z,5.75
2022-12-05T09:13:42.631Z,5.35
2022-12-05T09:16:16.042Z,5.50
2022-12-05T09:18:43.552Z,5.80
2022-12-05T09:21:16.583Z,5.80
2022-12-05T09:23:43.419Z,5.77
2022-12-05T09:26:12.821Z,5.29
2022-12-05T09:28:39.891Z,5.43
2022-12-05T09:31:13.102Z,5.12
2022-12-05T09:33:39.806Z,5.15
2022-12-05T09:36:09.409Z,5.65
2022-12-05T09:38:35.789Z,5.40
2022-12-05T09:41:17.675Z,5.16
2022-12-05T09:43:58.666Z,5.50
2022-12-05T09:46:43.880Z,4.96
2022-12-05T09:49:12.868Z,5.01
2022-12-05T09:51:44.702Z,4.84
2022-12-05T09:54:13.213Z,4.85
2022-12-05T09:56:43.343Z,4.94
2022-12-05T09:59:20.423Z,5.27
2022-12-05T10:02:07.337Z,5.30
2022-12-05T10:05:00.375Z,5.15
2022-12-05T10:07:38.240Z,4.87
2022-12-05T10:10:20.175Z,5.35
2022-12-05T10:13:17.601Z,5.57
2022-12-05T10:15:53.024Z,5.02
2022-12-05T10:18:31.905Z,5.50
2022-12-05T10:21:15.421Z,5.81
2022-12-05T10:23:58.270Z,5.90
2022-12-05T10:26:30.708Z,5.83
2022-12-05T10:29:02.578Z,5.96
2022-12-05T10:31:36.126Z,5.94
2022-12-05T10:34:12.139Z,5.77
2022-12-05T10:36:38.497Z,5.63
2022-12-05T10:39:11.128Z,5.87
2022-12-05T10:41:38.071Z,5.96
2022-12-05T10:44:05.728Z,5.97
2022-12-05T10:46:32.198Z,5.67
2022-12-05T10:48:59.416Z,5.45
2022-12-05T10:51:34.011Z,6.08
2022-12-05T10:54:22.656Z,5.83
2022-12-05T10:56:53.766Z,5.95
2022-12-05T10:59:25.574Z,5.76
2022-12-05T11:01:55.165Z,6.00
2022-12-05T11:04:30.494Z,5.48
2022-12-05T11:07:00.545Z,6.13
2022-12-05T11:09:32.660Z,6.02
2022-12-05T11:12:05.548Z,6.09
2022-12-05T11:14:34.325Z,6.13
2022-12-05T11:17:02.249Z,6.10
2022-12-05T11:19:32.602Z,5.97
2022-12-05T11:21:59.534Z,6.15
2022-12-05T11:24:25.810Z,6.10
2022-12-05T11:26:52.755Z,5.94
2022-12-05T11:29:58.127Z,6.00
2022-12-05T11:32:27.705Z,5.70
2022-12-05T11:35:03.211Z,5.95
2022-12-05T11:37:43.195Z,5.74
2022-12-05T11:40:16.308Z,5.60
2022-12-05T11:43:29.892Z,5.62
2022-12-05T11:46:11.961Z,5.96
2022-12-05T11:49:08.299Z,5.97
2022-12-05T11:51:54.817Z,5.87
2022-12-05T11:55:05.110Z,6.05
2022-12-05T11:57:52.584Z,6.05
2022-12-05T12:00:22.381Z,6.06
2022-12-05T12:03:33.804Z,5.96
2022-12-05T12:06:21.055Z,6.10
2022-12-05T12:09:10.458Z,6.05
2022-12-05T12:11:49.984Z,6.07
2022-12-05T12:14:25.376Z,6.10
2022-12-05T12:17:20.659Z,5.91
2022-12-05T12:19:55.399Z,6.00
2022-12-05T12:22:31.932Z,5.68
2022-12-05T12:25:16.487Z,5.89
2022-12-05T12:28:05.227Z,5.80
2022-12-05T12:30:57.470Z,5.65
2022-12-05T12:34:21.973Z,5.30
2022-12-05T12:37:04.807Z,5.29
2022-12-05T12:39:49.611Z,5.49
2022-12-05T12:42:58.712Z,5.37
2022-12-05T12:45:34.301Z,5.73
2022-12-05T12:48:16.083Z,5.53
2022-12-05T12:50:45.246Z,5.09
2022-12-05T12:53:33.695Z,5.53
2022-12-05T12:56:21.392Z,5.51
2022-12-05T12:58:56.961Z,5.46
2022-12-05T13:01:54.007Z,5.46
2022-12-05T13:04:28.863Z,5.16
2022-12-05T13:07:04.888Z,4.96
2022-12-05T13:09:47.321Z,4.88
2022-12-05T13:12:23.137Z,5.19
2022-12-05T13:14:54.287Z,5.16
2022-12-05T13:17:23.365Z,5.40
2022-12-05T13:19:52.320Z,5.40
2022-12-05T13:22:22.334Z,5.38
2022-12-05T13:24:53.026Z,4.84
2022-12-05T13:30:57.676Z,5.46
2022-12-05T13:33:32.737Z,4.96
2022-12-05T13:36:27.229Z,5.42
2022-12-05T13:39:21.757Z,5.08
2022-12-05T13:42:11.000Z,5.26
2022-12-05T13:44:45.131Z,5.19
2022-12-05T13:47:37.703Z,5.49
2022-12-05T13:50:14.252Z,5.37
2022-12-05T13:52:52.090Z,5.52
2022-12-05T13:55:36.549Z,5.54
2022-12-05T13:58:37.666Z,5.61
2022-12-05T14:01:37.010Z,5.59
2022-12-05T14:04:23.247Z,5.59
2022-12-05T14:06:52.633Z,5.64
2022-12-05T14:09:19.055Z,5.57
2022-12-05T14:12:12.152Z,5.40
2022-12-05T14:15:03.946Z,5.49
2022-12-05T14:17:44.145Z,5.49
2022-12-05T14:20:21.475Z,5.44
2022-12-05T14:22:54.716Z,5.41
2022-12-05T14:25:35.727Z,5.43
2022-12-05T14:28:18.724Z,5.18
2022-12-05T14:31:25.848Z,5.40
2022-12-05T14:34:36.885Z,5.47
2022-12-05T14:37:03.321Z,5.48
2022-12-05T14:39:44.007Z,5.44
2022-12-05T14:42:22.948Z,5.39
2022-12-05T14:44:51.893Z,5.20
2022-12-05T14:47:25.332Z,5.25
2022-12-05T14:50:04.280Z,5.33
2022-12-05T14:52:31.984Z,4.66
2022-12-05T14:55:03.986Z,4.78
2022-12-05T14:57:34.437Z,5.07
2022-12-05T15:00:06.548Z,5.14
2022-12-05T15:02:39.325Z,4.91
2022-12-05T15:05:22.336Z,5.10
2022-12-05T15:07:50.918Z,5.12
2022-12-05T15:10:24.945Z,4.89
2022-12-05T15:12:58.227Z,4.85
2022-12-05T15:15:41.551Z,4.82
2022-12-05T15:18:28.686Z,4.68
2022-12-05T15:21:16.262Z,4.93
2022-12-05T15:23:42.601Z,4.94
2022-12-05T15:29:12.173Z,4.64
2022-12-05T15:31:58.460Z,4.95
2022-12-05T15:34:34.937Z,4.94
2022-12-05T15:37:29.103Z,4.83
2022-12-05T15:40:09.216Z,4.85
2022-12-05T15:42:43.645Z,4.66
2022-12-05T15:45:15.924Z,4.84
2022-12-05T15:47:50.764Z,4.73
2022-12-05T15:50:22.800Z,4.79
2022-12-05T15:53:00.020Z,4.78
2022-12-05T15:55:26.303Z,4.77
2022-12-05T15:58:09.652Z,4.66
2022-12-05T16:00:43.649Z,4.41
2022-12-05T16:03:19.984Z,4.51
2022-12-05T16:05:49.087Z,4.77
2022-12-05T16:08:15.967Z,4.38
2022-12-05T16:10:43.192Z,4.67
2022-12-05T16:13:15.501Z,4.60
2022-12-05T16:15:56.584Z,4.37
2022-12-05T16:18:31.364Z,3.89
2022-12-05T16:20:58.296Z,4.76
2022-12-05T16:23:37.302Z,4.15
2022-12-05T16:26:12.478Z,4.77
2022-12-05T16:28:39.227Z,4.06
2022-12-05T16:31:06.643Z,3.99
2022-12-05T16:33:33.285Z,4.63
2022-12-05T16:36:12.726Z,4.55
2022-12-05T16:38:40.959Z,4.63
2022-12-05T16:41:09.112Z,4.50
2022-12-05T16:43:35.449Z,4.69
2022-12-05T16:46:36.766Z,4.75
2022-12-05T16:49:32.013Z,4.79
2022-12-05T16:52:07.492Z,4.75
2022-12-05T16:54:33.953Z,4.49
2022-12-05T16:57:01.532Z,4.14
2022-12-05T16:59:33.919Z,4.77
2022-12-05T17:02:02.193Z,4.65
2022-12-05T17:04:31.224Z,4.03
2022-12-05T17:06:57.594Z,4.73
2022-12-05T17:09:24.298Z,4.62
2022-12-05T17:11:53.815Z,4.71
2022-12-05T17:14:20.382Z,4.49
2022-12-05T17:16:46.965Z,4.66
2022-12-05T17:19:14.537Z,4.60
2022-12-05T17:21:42.198Z,4.84
2022-12-05T17:24:18.937Z,4.85
2022-12-05T17:26:47.253Z,4.32
2022-12-05T17:29:13.608Z,4.17
2022-12-05T17:31:40.138Z,4.63
2022-12-05T17:34:15.617Z,4.86
2022-12-05T17:36:42.059Z,4.75
2022-12-05T17:39:09.166Z,4.65
2022-12-05T17:41:36.079Z,4.35
2022-12-05T17:44:04.010Z,4.72
2022-12-05T17:46:30.625Z,4.74
2022-12-05T17:48:56.994Z,4.40
2022-12-05T17:51:24.020Z,4.87
2022-12-05T17:53:52.823Z,4.57
2022-12-05T17:56:19.421Z,4.83
2022-12-05T17:58:46.096Z,4.18
2022-12-05T18:01:19.251Z,4.23
2022-12-05T18:03:49.315Z,4.95
2022-12-05T18:06:16.884Z,4.74
2022-12-05T18:08:49.704Z,4.20
2022-12-05T18:11:16.559Z,4.64
2022-12-05T18:13:45.181Z,4.07
2022-12-05T18:16:12.457Z,4.70
2022-12-05T18:18:39.456Z,4.76
2022-12-05T18:21:12.027Z,3.85
2022-12-05T18:23:40.354Z,4.00
2022-12-05T18:26:09.371Z,4.18
2022-12-05T18:28:37.588Z,4.05
2022-12-05T18:31:11.908Z,4.19
2022-12-05T18:33:41.160Z,4.12
2022-12-05T18:36:10.138Z,3.79
2022-12-05T18:38:37.178Z,4.90
2022-12-05T18:41:06.438Z,4.64
2022-12-05T18:43:33.111Z,4.96
2022-12-05T18:46:01.069Z,4.41
2022-12-05T18:48:39.318Z,4.14
2022-12-05T18:51:11.612Z,4.70
2022-12-05T18:53:38.718Z,4.69
2022-12-05T18:56:22.162Z,5.01
2022-12-05T18:59:00.099Z,5.11
2022-12-05T19:01:28.439Z,4.47
2022-12-05T19:03:57.079Z,5.10
2022-12-05T19:06:29.378Z,4.08
2022-12-05T19:08:58.394Z,4.64
2022-12-05T19:11:26.476Z,4.06
2022-12-05T19:14:01.220Z,4.20
2022-12-05T19:16:29.073Z,4.29
2022-12-05T19:18:58.371Z,5.19
2022-12-05T19:21:26.524Z,5.17
2022-12-05T19:23:53.610Z,4.55
2022-12-05T19:26:20.785Z,4.55
2022-12-05T19:28:47.643Z,4.73
2022-12-05T19:31:17.228Z,5.27
2022-12-05T19:33:45.794Z,5.16
2022-12-05T19:36:15.371Z,4.92
2022-12-05T19:38:43.642Z,4.53
2022-12-05T19:41:12.547Z,5.20
2022-12-05T19:43:40.780Z,4.78
2022-12-05T19:46:10.960Z,5.27
2022-12-05T19:48:37.540Z,5.30
2022-12-05T19:51:04.268Z,4.82
2022-12-05T19:53:33.614Z,5.34
2022-12-05T19:56:01.764Z,4.72
2022-12-05T19:58:30.730Z,5.15
2022-12-05T20:01:11.092Z,5.24
2022-12-05T20:03:37.870Z,5.23
2022-12-05T20:06:07.067Z,4.80
2022-12-05T20:08:35.318Z,4.80
2022-12-05T20:11:11.285Z,5.10
2022-12-05T20:13:46.586Z,5.29
2022-12-05T20:16:15.765Z,5.23
2022-12-05T20:18:43.935Z,5.05
2022-12-05T20:21:12.728Z,5.31
2022-12-05T20:23:39.376Z,5.34
2022-12-05T20:26:11.975Z,5.37
2022-12-05T20:28:39.044Z,5.26
2022-12-05T20:31:07.056Z,5.23
2022-12-05T20:33:34.139Z,4.83
2022-12-05T20:36:05.942Z,5.16
2022-12-05T20:38:32.474Z,4.86
2022-12-05T20:41:07.537Z,5.39
2022-12-05T20:43:34.677Z,5.28
2022-12-05T20:46:10.288Z,4.89
2022-12-05T20:48:36.726Z,4.92
2022-12-05T20:51:08.223Z,5.03
2022-12-05T20:53:36.986Z,4.87
2022-12-05T20:56:08.727Z,5.38
2022-12-05T20:58:36.097Z,5.44
2022-12-05T21:01:06.227Z,5.03
2022-12-05T21:03:32.849Z,5.26
2022-12-05T21:05:59.732Z,5.34
2022-12-05T21:08:26.116Z,5.19
2022-12-05T21:10:52.910Z,5.34
2022-12-05T21:13:19.643Z,5.42
2022-12-05T21:15:46.143Z,5.26
2022-12-05T21:18:12.619Z,5.28
2022-12-05T21:20:42.122Z,5.11
2022-12-05T21:23:09.073Z,5.42
2022-12-05T21:25:35.416Z,5.02
2022-12-05T21:28:02.109Z,5.15
2022-12-05T21:30:28.470Z,5.35
2022-12-05T21:32:55.571Z,5.40
2022-12-05T21:35:21.961Z,5.29
2022-12-05T21:37:48.305Z,5.18
2022-12-05T21:40:14.646Z,5.24
2022-12-05T21:42:41.021Z,5.33
2022-12-05T21:45:07.838Z,5.35
2022-12-05T21:47:34.235Z,4.99
2022-12-05T21:50:00.909Z,5.35
2022-12-05T21:52:27.434Z,4.92
2022-12-05T21:54:53.812Z,5.35
2022-12-05T21:57:20.234Z,5.49
2022-12-05T21:59:46.637Z,5.44
2022-12-05T22:02:12.964Z,5.56
2022-12-05T22:04:39.264Z,5.39
2022-12-05T22:07:05.605Z,4.92
2022-12-05T22:09:31.924Z,5.35
2022-12-05T22:11:58.371Z,5.53
2022-12-05T22:14:24.783Z,5.34
2022-12-05T22:16:51.205Z,5.47
2022-12-05T22:19:17.540Z,5.38
2022-12-05T22:21:43.901Z,5.55
2022-12-05T22:24:10.278Z,5.54
2022-12-05T22:26:36.619Z,5.60
2022-12-05T22:29:02.933Z,5.18
2022-12-05T22:31:29.369Z,5.76
2022-12-05T22:33:55.730Z,5.70
2022-12-05T22:36:24.084Z,5.48
2022-12-05T22:38:50.616Z,5.59
2022-12-05T22:41:22.688Z,5.80
2022-12-05T22:43:52.859Z,5.62
2022-12-05T22:46:20.537Z,5.10
2022-12-05T22:48:48.228Z,5.52
2022-12-05T22:51:15.397Z,5.82
2022-12-05T22:53:42.329Z,5.60
2022-12-05T22:56:11.130Z,5.78
2022-12-05T22:58:38.593Z,5.83
2022-12-05T23:01:12.470Z,5.75
2022-12-05T23:03:39.605Z,5.82
2022-12-05T23:06:11.478Z,4.93
2022-12-05T23:08:39.182Z,5.39
2022-12-05T23:11:06.496Z,5.42
2022-12-05T23:13:34.886Z,5.53
2022-12-05T23:16:11.001Z,5.59
2022-12-05T23:18:47.271Z,5.68
2022-12-05T23:21:17.994Z,5.93
2022-12-05T23:23:44.935Z,5.38
2022-12-05T23:26:11.979Z,5.82
2022-12-05T23:28:38.657Z,5.19
2022-12-05T23:31:06.568Z,5.71
2022-12-05T23:33:33.344Z,5.85
2022-12-05T23:35:59.737Z,5.82
2022-12-05T23:38:26.214Z,5.86
2022-12-05T23:41:00.779Z,5.65
2022-12-05T23:43:28.796Z,5.68
2022-12-05T23:45:55.301Z,5.31
2022-12-05T23:48:21.864Z,5.39
2022-12-05T23:50:59.915Z,5.87
2022-12-05T23:53:27.403Z,5.80
2022-12-05T23:55:53.852Z,5.68
2022-12-05T23:58:20.402Z,5.44
